Aeroporto :
LOGIN :

Iscrizione | Disclaimer

   EN    FR    IT 

 










Sommario :    VFR   VFR Marginale   IFR   IFR Intensivo   IFR Molto Intensivo
Visibilità : 
Base nubi : 
>= 8 km
>= 3000ft
5 / 8 km
1000 / 3000 ft
1500m / 5 km
500 / 1000 ft
800 / 1500m
200 / 500 ft
< 800m
< 200 ft
Simboli :   Temporali  Nebbia  Neve Forte  Precipitazioni Forti  Vento > 20 kt
SIGMETs :   Varie  Temporali  Ghiacco  Turbolenza  Onda orograficha  Ceneri Vulcaniche






- Altitudine del aeroporto : 284 ft


EGUW - RAF Wattisham

ULTIMO METAR :
  • 201120Z 19013KT 9999 SCT016 BKN060 16/13 Q1001 TEMPO FEW018 RMK WHT TEMPO BLU

METARs OBSOLETI :
  • 201050Z 20012KT 9999 FEW018 BKN250 16/13 Q1002 TEMPO SCT018 RMK BLU TEMPO WHT
  • 201020Z 19011KT 9999 SCT015 BKN035 15/12 Q1002 TEMPO 5000 -RADZ BKN010 RMK WHT TEMPO GRN
  • 201007Z 19012KT 9999 BKN015 14/12 Q1002 TEMPO 5000 -RADZ BKN010 RMK WHT TEMPO GRN
  • 200950Z 19013KT 9999 BKN013 14/12 Q1002 TEMPO 5000 -RADZ RMK GRN TEMPO GRN
  • 200939Z 19011KT 9999 BKN013 BKN060 14/12 Q1002 TEMPO 5000 -RADZ RMK GRN TEMPO GRN
  • 200931Z 19011KT 9999 SCT018 SCT060 BKN250 14/12 Q1001 BECMG BKN007 RMK WHT BECMG GRN
  • 200920Z 19011KT 9999 FEW018 BKN250 14/12 Q1001 BECMG BKN007 RMK BLU BECMG GRN
  • 200850Z 19011KT 9999 FEW030 SCT090 13/11 Q1002 BECMG BKN007 RMK BLU BECMG GRN

TAF TAF EGUW
Valido dal 20 a 12 ore il 20 a 21 ore UTC


201030Z 2012/2021 20012KT 9999 BKN018
BECMG 2012/2013 FEW018
PROB30
TEMPO 2012/2016 21015G25KT
BECMG 2019/2021 BKN015



MetMap, La meteo Aeronautica in un colpo d'occhio ! - Copyright ORBIFLY Dicembre 2007 - Disclaimer

ORBIFLY MET'MAP TEAM :

Programmazione e sviluppo : Alexandra Zaïnal
Concezione : Baudouin d'Aumeries
Aiuto per la programmazione : Marc-Olivier Méhu
Supporto tecnico e logistico : Manuel Goepfert
Aiuto per la traduzione : Arnaldo La Scala

Contatto : metmap@orbifly.com




FONTI E CREDITI :

   NOAA